createdAt,value
2019-01-15T00:00:33.110Z,8.81
2019-01-15T00:03:00.252Z,9.10
2019-01-15T00:05:27.506Z,9.01
2019-01-15T00:07:55.511Z,8.99
2019-01-15T00:10:22.741Z,9.09
2019-01-15T00:12:49.618Z,8.97
2019-01-15T00:15:16.931Z,8.94
2019-01-15T00:17:43.940Z,8.94
2019-01-15T00:20:11.238Z,8.94
2019-01-15T00:22:38.463Z,9.08
2019-01-15T00:25:05.713Z,8.99
2019-01-15T00:27:32.575Z,9.06
2019-01-15T00:29:59.467Z,9.13
2019-01-15T00:32:27.387Z,8.97
2019-01-15T00:34:54.315Z,9.02
2019-01-15T00:37:21.179Z,9.10
2019-01-15T00:39:48.029Z,9.06
2019-01-15T00:42:15.691Z,9.12
2019-01-15T00:44:43.038Z,8.91
2019-01-15T00:47:10.274Z,8.82
2019-01-15T00:49:37.138Z,8.61
2019-01-15T00:52:04.025Z,8.46
2019-01-15T00:54:30.972Z,8.65
2019-01-15T00:56:57.878Z,8.82
2019-01-15T00:59:25.907Z,9.09
2019-01-15T01:01:52.862Z,8.99
2019-01-15T01:04:19.797Z,9.09
2019-01-15T01:06:46.988Z,9.13
2019-01-15T01:09:14.240Z,9.27
2019-01-15T01:11:41.471Z,9.13
2019-01-15T01:14:08.622Z,9.08
2019-01-15T01:16:35.489Z,9.18
2019-01-15T01:19:02.362Z,9.24
2019-01-15T01:21:29.308Z,9.24
2019-01-15T01:23:56.237Z,9.24
2019-01-15T01:26:23.525Z,9.16
2019-01-15T01:28:50.706Z,9.16
2019-01-15T01:31:17.984Z,9.42
2019-01-15T01:33:44.932Z,9.60
2019-01-15T01:36:11.844Z,8.71
2019-01-15T01:38:38.851Z,9.26
2019-01-15T01:41:05.810Z,9.30
2019-01-15T01:43:32.995Z,9.31
2019-01-15T01:46:00.160Z,9.29
2019-01-15T01:48:27.114Z,9.31
2019-01-15T01:50:54.040Z,9.19
2019-01-15T01:53:20.921Z,9.18
2019-01-15T01:55:48.151Z,9.37
2019-01-15T01:58:15.085Z,9.18
2019-01-15T02:00:41.963Z,9.37
2019-01-15T02:03:09.194Z,9.23
2019-01-15T02:05:36.150Z,9.56
2019-01-15T02:08:04.070Z,9.47
2019-01-15T02:10:31.364Z,9.29
2019-01-15T02:12:58.328Z,9.42
2019-01-15T02:15:25.289Z,9.37
2019-01-15T02:17:52.193Z,9.47
2019-01-15T02:20:19.136Z,9.53
2019-01-15T02:22:46.005Z,9.62
2019-01-15T02:25:13.445Z,9.59
2019-01-15T02:27:40.696Z,9.45
2019-01-15T02:30:08.038Z,9.47
2019-01-15T02:32:34.908Z,9.35
2019-01-15T02:35:01.763Z,9.30
2019-01-15T02:37:28.648Z,9.53
2019-01-15T02:39:55.597Z,9.62
2019-01-15T02:42:22.888Z,9.28
2019-01-15T02:44:50.028Z,9.63
2019-01-15T02:47:17.180Z,8.66
2019-01-15T02:49:44.339Z,8.97
2019-01-15T02:52:11.583Z,9.28
2019-01-15T02:54:38.463Z,9.38
2019-01-15T02:57:05.433Z,9.41
2019-01-15T02:59:32.292Z,9.28
2019-01-15T03:01:59.456Z,9.04
2019-01-15T03:04:26.349Z,9.09
2019-01-15T03:06:53.551Z,9.05
2019-01-15T03:09:20.416Z,9.28
2019-01-15T03:11:47.298Z,9.38
2019-01-15T03:14:14.245Z,9.32
2019-01-15T03:16:41.170Z,9.65
2019-01-15T03:19:08.073Z,9.66
2019-01-15T03:21:35.351Z,9.87
2019-01-15T03:24:02.579Z,9.35
2019-01-15T03:26:29.755Z,9.55
2019-01-15T03:28:56.996Z,9.55
2019-01-15T03:31:23.950Z,9.68
2019-01-15T03:33:50.917Z,9.70
2019-01-15T03:36:18.247Z,9.63
2019-01-15T03:38:45.182Z,9.70
2019-01-15T03:41:12.037Z,9.60
2019-01-15T03:43:38.904Z,9.67
2019-01-15T03:46:05.770Z,9.75
2019-01-15T03:48:32.642Z,9.69
2019-01-15T03:50:59.513Z,9.66
2019-01-15T03:53:26.423Z,9.37
2019-01-15T03:55:53.712Z,9.08
2019-01-15T03:58:20.970Z,9.28
2019-01-15T04:00:47.825Z,9.05
2019-01-15T04:03:15.693Z,9.37
2019-01-15T04:05:44.052Z,9.29
2019-01-15T04:08:11.016Z,9.26
2019-01-15T04:10:37.966Z,9.58
2019-01-15T04:13:11.264Z,9.00
2019-01-15T04:15:33.769Z,9.22
2019-01-15T04:18:00.675Z,9.43
2019-01-15T04:20:27.631Z,9.55
2019-01-15T04:22:55.827Z,9.43
2019-01-15T04:25:22.983Z,9.64
2019-01-15T04:27:49.858Z,9.58
2019-01-15T04:30:16.871Z,9.13
2019-01-15T04:32:44.258Z,9.06
2019-01-15T04:35:11.205Z,9.31
2019-01-15T04:37:38.137Z,9.47
2019-01-15T04:40:05.014Z,9.72
2019-01-15T04:42:31.891Z,9.76
2019-01-15T04:44:59.281Z,9.65
2019-01-15T04:47:26.429Z,9.66
2019-01-15T04:49:53.287Z,9.87
2019-01-15T04:52:20.158Z,9.85
2019-01-15T04:54:47.115Z,9.77
2019-01-15T04:57:14.319Z,9.62
2019-01-15T04:59:41.266Z,9.65
2019-01-15T05:02:08.505Z,9.63
2019-01-15T05:04:35.393Z,9.43
2019-01-15T05:07:02.296Z,9.44
2019-01-15T05:09:29.573Z,9.33
2019-01-15T05:11:56.805Z,9.43
2019-01-15T05:14:23.786Z,9.65
2019-01-15T05:16:50.735Z,9.65
2019-01-15T05:19:17.660Z,9.63
2019-01-15T05:21:44.578Z,9.50
2019-01-15T05:24:11.542Z,9.36
2019-01-15T05:26:38.479Z,9.56
2019-01-15T05:29:05.718Z,9.57
2019-01-15T05:31:32.599Z,9.76
2019-01-15T05:33:59.623Z,9.59
2019-01-15T05:36:26.576Z,9.73
2019-01-15T05:38:53.536Z,9.55
2019-01-15T05:41:21.632Z,9.59
2019-01-15T05:43:48.521Z,9.69
2019-01-15T05:46:15.493Z,9.43
2019-01-15T05:48:42.867Z,9.46
2019-01-15T05:51:09.826Z,9.46
2019-01-15T05:53:36.780Z,9.41
2019-01-15T05:56:04.091Z,9.49
2019-01-15T05:58:31.237Z,9.62
2019-01-15T06:00:58.591Z,9.63
2019-01-15T06:03:25.841Z,9.74
2019-01-15T06:05:52.767Z,9.63
2019-01-15T06:08:19.714Z,9.60
2019-01-15T06:10:46.624Z,9.50
2019-01-15T06:13:14.033Z,9.32
2019-01-15T06:15:41.437Z,9.28
2019-01-15T06:18:08.394Z,9.70
2019-01-15T06:20:35.677Z,9.35
2019-01-15T06:23:02.927Z,9.49
2019-01-15T06:25:29.829Z,9.56
2019-01-15T06:27:56.781Z,9.55
2019-01-15T06:30:24.701Z,9.57
2019-01-15T06:32:51.664Z,9.74
2019-01-15T06:35:18.597Z,9.39
2019-01-15T06:37:45.841Z,9.52
2019-01-15T06:40:12.824Z,9.48
2019-01-15T06:42:39.761Z,9.58
2019-01-15T06:45:06.679Z,9.69
2019-01-15T06:47:33.598Z,9.57
2019-01-15T06:50:00.762Z,9.61
2019-01-15T06:52:27.793Z,9.82
2019-01-15T06:54:54.732Z,9.53
2019-01-15T06:57:21.679Z,9.35
2019-01-15T06:59:48.628Z,9.43
2019-01-15T07:02:15.902Z,9.47
2019-01-15T07:04:44.032Z,9.50
2019-01-15T07:07:11.137Z,9.36
2019-01-15T07:09:38.097Z,9.73
2019-01-15T07:12:05.332Z,9.55
2019-01-15T07:14:32.504Z,9.51
2019-01-15T07:16:59.730Z,9.53
2019-01-15T07:19:26.624Z,9.57
2019-01-15T07:21:53.972Z,9.88
2019-01-15T07:24:20.916Z,9.94
2019-01-15T07:26:47.876Z,9.79
2019-01-15T07:29:15.080Z,9.71
2019-01-15T07:31:42.318Z,9.50
2019-01-15T07:34:09.202Z,9.73
2019-01-15T07:36:36.529Z,9.78
2019-01-15T07:39:03.668Z,9.77
2019-01-15T07:41:31.952Z,9.88
2019-01-15T07:44:04.291Z,9.58
2019-01-15T07:46:27.421Z,9.75
2019-01-15T07:48:54.366Z,9.70
2019-01-15T07:51:21.592Z,9.52
2019-01-15T07:53:48.517Z,9.77
2019-01-15T07:56:15.745Z,9.82
2019-01-15T07:58:42.681Z,9.96
2019-01-15T08:01:09.658Z,9.93
2019-01-15T08:03:36.914Z,9.78
2019-01-15T08:06:03.797Z,9.85
2019-01-15T08:08:31.027Z,10.04
2019-01-15T08:10:57.987Z,9.96
2019-01-15T08:13:24.860Z,9.81
2019-01-15T08:15:52.064Z,9.94
2019-01-15T08:18:19.308Z,9.62
2019-01-15T08:20:46.173Z,9.85
2019-01-15T08:23:13.429Z,9.94
2019-01-15T08:25:40.371Z,9.92
2019-01-15T08:28:07.257Z,9.89
2019-01-15T08:30:34.205Z,9.87
2019-01-15T08:33:01.084Z,10.17
2019-01-15T08:35:28.233Z,10.30
2019-01-15T08:37:55.144Z,10.12
2019-01-15T08:40:22.338Z,10.33
2019-01-15T08:42:49.213Z,9.93
2019-01-15T08:45:16.578Z,9.96
2019-01-15T08:47:43.537Z,10.07
2019-01-15T08:50:11.033Z,10.04
2019-01-15T08:52:37.934Z,10.46
2019-01-15T08:55:04.911Z,10.59
2019-01-15T08:57:32.186Z,10.79
2019-01-15T08:59:59.113Z,10.40
2019-01-15T09:02:26.404Z,10.46
2019-01-15T09:04:53.288Z,10.66
2019-01-15T09:07:20.603Z,10.52
2019-01-15T09:09:47.573Z,10.80
2019-01-15T09:12:14.774Z,10.65
2019-01-15T09:14:42.266Z,10.49
2019-01-15T09:17:11.117Z,10.58
2019-01-15T09:19:37.758Z,10.31
2019-01-15T09:22:05.013Z,10.40
2019-01-15T09:24:31.886Z,10.43
2019-01-15T09:26:59.114Z,10.52
2019-01-15T09:29:26.290Z,10.53
2019-01-15T09:31:53.227Z,10.70
2019-01-15T09:34:20.181Z,10.62
2019-01-15T09:36:47.118Z,10.62
2019-01-15T09:39:14.015Z,10.68
2019-01-15T09:41:40.968Z,10.40
2019-01-15T09:44:08.152Z,10.41
2019-01-15T09:46:35.143Z,10.34
2019-01-15T09:49:02.089Z,10.47
2019-01-15T09:51:29.402Z,10.34
2019-01-15T09:53:56.357Z,10.38
2019-01-15T09:56:23.598Z,10.54
2019-01-15T09:58:50.555Z,10.40
2019-01-15T10:01:17.493Z,10.78
2019-01-15T10:03:44.634Z,10.38
2019-01-15T10:06:11.578Z,10.34
2019-01-15T10:08:38.454Z,10.29
2019-01-15T10:11:05.344Z,10.17
2019-01-15T10:13:32.329Z,10.19
2019-01-15T10:16:00.082Z,10.20
2019-01-15T10:18:27.001Z,10.33
2019-01-15T10:20:53.884Z,10.70
2019-01-15T10:23:21.133Z,10.70
2019-01-15T10:25:48.986Z,10.53
2019-01-15T10:28:15.951Z,10.65
2019-01-15T10:30:43.282Z,10.53
2019-01-15T10:33:12.179Z,10.14
2019-01-15T10:35:39.440Z,10.51
2019-01-15T10:38:06.416Z,10.69
2019-01-15T10:40:33.633Z,10.62
2019-01-15T10:43:00.567Z,10.55
2019-01-15T10:45:27.582Z,10.49
2019-01-15T10:47:54.454Z,10.57
2019-01-15T10:50:21.834Z,10.28
2019-01-15T10:52:49.101Z,10.30
2019-01-15T10:55:16.329Z,10.24
2019-01-15T10:57:43.205Z,10.43
2019-01-15T11:00:10.097Z,10.45
2019-01-15T11:02:38.225Z,10.37
2019-01-15T11:05:05.557Z,10.27
2019-01-15T11:07:32.909Z,10.24
2019-01-15T11:09:59.820Z,10.21
2019-01-15T11:12:26.758Z,10.14
2019-01-15T11:14:56.276Z,10.22
2019-01-15T11:17:22.282Z,10.01
2019-01-15T11:19:49.199Z,9.78
2019-01-15T11:22:16.069Z,9.98
2019-01-15T11:24:43.237Z,10.00
2019-01-15T11:27:10.205Z,10.14
2019-01-15T11:29:37.853Z,10.40
2019-01-15T11:32:04.879Z,10.34
2019-01-15T11:34:31.825Z,10.49
2019-01-15T11:36:58.696Z,10.72
2019-01-15T11:39:25.970Z,10.48
2019-01-15T11:41:52.936Z,10.65
2019-01-15T11:44:19.929Z,10.56
2019-01-15T11:46:47.216Z,10.64
2019-01-15T11:49:14.095Z,10.61
2019-01-15T11:51:40.988Z,10.35
2019-01-15T11:54:07.941Z,10.43
2019-01-15T11:56:34.904Z,9.92
2019-01-15T11:59:01.834Z,10.49
2019-01-15T12:01:29.084Z,10.55
2019-01-15T12:03:56.336Z,10.67
2019-01-15T12:06:23.293Z,10.91
2019-01-15T12:08:50.437Z,10.58
2019-01-15T12:11:21.038Z,10.58
2019-01-15T12:13:48.344Z,10.91
2019-01-15T12:16:15.308Z,10.98
2019-01-15T12:18:42.333Z,10.68
2019-01-15T12:21:09.309Z,10.40
2019-01-15T12:23:38.881Z,10.41
2019-01-15T12:26:05.849Z,10.58
2019-01-15T12:28:33.067Z,10.42
2019-01-15T12:30:59.941Z,10.49
2019-01-15T12:33:27.176Z,10.68
2019-01-15T12:35:54.429Z,10.73
2019-01-15T12:38:21.674Z,10.63
2019-01-15T12:40:48.537Z,10.54
2019-01-15T12:43:15.515Z,10.82
2019-01-15T12:45:42.722Z,10.53
2019-01-15T12:48:09.972Z,10.24
2019-01-15T12:50:36.856Z,10.67
2019-01-15T12:53:04.154Z,10.90
2019-01-15T12:55:31.164Z,10.91
2019-01-15T12:57:58.069Z,11.06
2019-01-15T13:00:25.418Z,10.80
2019-01-15T13:02:52.706Z,10.63
2019-01-15T13:05:20.033Z,10.36
2019-01-15T13:07:46.963Z,10.43
2019-01-15T13:10:14.110Z,10.40
2019-01-15T13:12:41.273Z,10.58
2019-01-15T13:15:08.526Z,10.32
2019-01-15T13:17:35.460Z,10.24
2019-01-15T13:20:02.353Z,10.26
2019-01-15T13:22:29.275Z,10.12
2019-01-15T13:25:05.127Z,10.25
2019-01-15T13:27:36.286Z,10.27
2019-01-15T13:30:03.246Z,10.22
2019-01-15T13:32:31.317Z,10.35
2019-01-15T13:34:58.181Z,10.13
2019-01-15T13:37:25.086Z,10.22
2019-01-15T13:39:52.051Z,10.02
2019-01-15T13:42:19.006Z,10.04
2019-01-15T13:44:46.205Z,10.30
2019-01-15T13:47:13.143Z,10.33
2019-01-15T13:49:40.285Z,10.51
2019-01-15T13:52:07.553Z,10.26
2019-01-15T13:54:34.442Z,10.35
2019-01-15T13:57:01.387Z,10.24
2019-01-15T13:59:28.585Z,10.17
2019-01-15T14:01:55.458Z,10.00
2019-01-15T14:04:22.333Z,10.13
2019-01-15T14:06:49.216Z,10.07
2019-01-15T14:09:16.596Z,10.18
2019-01-15T14:11:43.536Z,10.11
2019-01-15T14:14:10.537Z,10.26
2019-01-15T14:16:37.421Z,10.08
2019-01-15T14:19:04.666Z,10.15
2019-01-15T14:21:31.541Z,9.91
2019-01-15T14:23:58.434Z,10.21
2019-01-15T14:26:25.617Z,10.26
2019-01-15T14:28:52.625Z,10.17
2019-01-15T14:31:20.531Z,10.21
2019-01-15T14:33:48.894Z,10.40
2019-01-15T14:36:15.784Z,10.22
2019-01-15T14:38:43.105Z,9.75
2019-01-15T14:41:10.261Z,9.73
2019-01-15T14:43:37.149Z,9.98
2019-01-15T14:46:04.099Z,9.88
2019-01-15T14:48:31.019Z,10.19
2019-01-15T14:50:58.945Z,10.26
2019-01-15T14:53:25.898Z,10.28
2019-01-15T14:55:52.905Z,9.98
2019-01-15T14:58:19.830Z,9.73
2019-01-15T15:00:46.727Z,10.17
2019-01-15T15:03:13.604Z,10.38
2019-01-15T15:05:48.934Z,10.52
2019-01-15T15:08:15.813Z,9.87
2019-01-15T15:10:43.136Z,9.78
2019-01-15T15:13:10.008Z,10.07
2019-01-15T15:15:36.998Z,9.76
2019-01-15T15:18:03.943Z,10.04
2019-01-15T15:20:30.898Z,10.21
2019-01-15T15:22:58.190Z,10.24
2019-01-15T15:25:25.212Z,9.93
2019-01-15T15:27:52.363Z,10.31
2019-01-15T15:30:19.499Z,10.36
2019-01-15T15:32:46.665Z,10.11
2019-01-15T15:35:13.813Z,10.48
2019-01-15T15:37:40.780Z,10.33
2019-01-15T15:40:08.016Z,10.37
2019-01-15T15:42:34.977Z,10.31
2019-01-15T15:45:02.202Z,10.39
2019-01-15T15:47:30.158Z,10.53
2019-01-15T15:49:57.119Z,10.42
2019-01-15T15:52:24.389Z,10.39
2019-01-15T15:54:51.620Z,10.25
2019-01-15T15:57:18.503Z,10.47
2019-01-15T15:59:45.357Z,10.34
2019-01-15T16:02:12.583Z,10.25
2019-01-15T16:04:39.548Z,10.35
2019-01-15T16:07:06.770Z,9.87
2019-01-15T16:09:33.709Z,10.24
2019-01-15T16:12:00.972Z,10.45
2019-01-15T16:14:28.320Z,10.04
2019-01-15T16:16:55.484Z,10.41
2019-01-15T16:19:22.735Z,10.26
2019-01-15T16:21:49.680Z,10.34
2019-01-15T16:24:16.685Z,10.37
2019-01-15T16:26:43.569Z,10.43
2019-01-15T16:29:10.659Z,9.86
2019-01-15T16:31:38.666Z,10.15
2019-01-15T16:34:07.991Z,10.11
2019-01-15T16:36:34.962Z,10.27
2019-01-15T16:39:02.202Z,10.17
2019-01-15T16:41:30.713Z,9.88
2019-01-15T16:43:57.781Z,10.25
2019-01-15T16:46:26.425Z,10.53
2019-01-15T16:48:53.540Z,10.61
2019-01-15T16:51:20.707Z,10.40
2019-01-15T16:53:48.065Z,10.51
2019-01-15T16:56:16.443Z,10.44
2019-01-15T16:58:43.418Z,10.56
2019-01-15T17:01:10.398Z,10.38
2019-01-15T17:03:37.349Z,10.67
2019-01-15T17:06:04.292Z,10.54
2019-01-15T17:08:31.584Z,10.32
2019-01-15T17:11:02.014Z,10.37
2019-01-15T17:13:29.249Z,10.45
2019-01-15T17:15:56.416Z,10.40
2019-01-15T17:18:23.361Z,10.39
2019-01-15T17:20:50.621Z,9.97
2019-01-15T17:23:17.602Z,10.21
2019-01-15T17:25:44.557Z,10.30
2019-01-15T17:28:11.554Z,10.54
2019-01-15T17:30:38.900Z,10.20
2019-01-15T17:33:05.884Z,10.46
2019-01-15T17:35:33.246Z,10.66
2019-01-15T17:38:00.508Z,11.02
2019-01-15T17:40:28.012Z,11.12
2019-01-15T17:42:55.365Z,11.32
2019-01-15T17:45:22.633Z,11.37
2019-01-15T17:47:49.516Z,11.50
2019-01-15T17:50:16.477Z,11.07
2019-01-15T17:52:43.827Z,11.07
2019-01-15T17:55:11.978Z,11.33
2019-01-15T17:57:39.094Z,11.22
2019-01-15T18:00:06.356Z,10.86
2019-01-15T18:02:33.386Z,11.36
2019-01-15T18:05:00.648Z,10.94
2019-01-15T18:07:27.509Z,10.90
2019-01-15T18:09:54.426Z,10.94
2019-01-15T18:12:21.526Z,11.21
2019-01-15T18:14:50.106Z,11.24
2019-01-15T18:17:17.439Z,11.05
2019-01-15T18:19:44.389Z,10.93
2019-01-15T18:22:11.292Z,10.62
2019-01-15T18:24:38.498Z,10.85
2019-01-15T18:27:05.820Z,10.85
2019-01-15T18:29:33.070Z,11.12
2019-01-15T18:31:59.956Z,10.84
2019-01-15T18:34:27.105Z,10.95
2019-01-15T18:36:54.049Z,10.96
2019-01-15T18:39:27.345Z,10.67
2019-01-15T18:41:54.703Z,10.66
2019-01-15T18:44:21.913Z,10.65
2019-01-15T18:46:55.663Z,10.52
2019-01-15T18:49:19.650Z,10.45
2019-01-15T18:51:49.638Z,10.91
2019-01-15T18:54:18.520Z,10.90
2019-01-15T18:56:45.445Z,10.80
2019-01-15T18:59:12.561Z,11.03
2019-01-15T19:01:39.594Z,11.17
2019-01-15T19:04:06.650Z,10.88
2019-01-15T19:06:33.614Z,11.01
2019-01-15T19:09:00.596Z,11.21
2019-01-15T19:11:29.366Z,11.26
2019-01-15T19:13:56.642Z,10.99
2019-01-15T19:16:23.841Z,10.80
2019-01-15T19:18:50.814Z,11.11
2019-01-15T19:21:17.805Z,11.33
2019-01-15T19:23:44.863Z,11.07
2019-01-15T19:26:11.840Z,11.22
2019-01-15T19:28:39.009Z,10.50
2019-01-15T19:31:06.226Z,11.00
2019-01-15T19:33:33.101Z,11.08
2019-01-15T19:36:00.390Z,10.46
2019-01-15T19:38:27.727Z,10.85
2019-01-15T19:40:56.415Z,10.98
2019-01-15T19:43:23.698Z,11.43
2019-01-15T19:45:51.011Z,11.33
2019-01-15T19:48:17.900Z,10.94
2019-01-15T19:50:45.122Z,11.22
2019-01-15T19:53:13.452Z,11.26
2019-01-15T19:55:41.299Z,10.40
2019-01-15T19:58:08.320Z,10.55
2019-01-15T20:00:35.539Z,11.03
2019-01-15T20:03:02.857Z,11.06
2019-01-15T20:05:30.175Z,11.08
2019-01-15T20:07:57.530Z,11.22
2019-01-15T20:10:25.619Z,11.06
2019-01-15T20:12:52.946Z,10.49
2019-01-15T20:15:19.889Z,10.72
2019-01-15T20:17:46.805Z,11.27
2019-01-15T20:20:14.122Z,11.28
2019-01-15T20:22:41.475Z,11.48
2019-01-15T20:25:08.694Z,11.10
2019-01-15T20:27:35.716Z,11.41
2019-01-15T20:30:03.335Z,11.42
2019-01-15T20:32:33.245Z,11.52
2019-01-15T20:35:00.310Z,11.29
2019-01-15T20:37:27.615Z,10.85
2019-01-15T20:39:54.870Z,11.12
2019-01-15T20:42:22.137Z,11.35
2019-01-15T20:44:49.395Z,11.39
2019-01-15T20:47:16.412Z,11.37
2019-01-15T20:49:43.584Z,11.59
2019-01-15T20:52:12.893Z,11.68
2019-01-15T20:54:40.668Z,11.57
2019-01-15T20:57:07.771Z,11.44
2019-01-15T20:59:35.146Z,11.45
2019-01-15T21:02:02.054Z,11.78
2019-01-15T21:04:28.986Z,11.99
2019-01-15T21:06:56.207Z,11.86
2019-01-15T21:09:23.116Z,11.58
2019-01-15T21:11:53.168Z,11.98
2019-01-15T21:14:20.424Z,12.10
2019-01-15T21:16:47.369Z,12.09
2019-01-15T21:19:17.978Z,12.06
2019-01-15T21:21:44.951Z,12.19
2019-01-15T21:24:11.957Z,12.10
2019-01-15T21:26:38.969Z,12.17
2019-01-15T21:29:06.190Z,12.37
2019-01-15T21:31:33.120Z,12.18
2019-01-15T21:33:59.984Z,12.50
2019-01-15T21:36:26.875Z,12.46
2019-01-15T21:38:53.840Z,12.14
2019-01-15T21:41:21.120Z,12.26
2019-01-15T21:43:48.061Z,11.92
2019-01-15T21:46:14.952Z,11.94
2019-01-15T21:48:41.828Z,12.09
2019-01-15T21:51:09.158Z,12.39
2019-01-15T21:53:36.556Z,12.13
2019-01-15T21:56:03.808Z,12.16
2019-01-15T21:58:30.774Z,12.04
2019-01-15T22:00:58.150Z,11.97
2019-01-15T22:03:25.113Z,12.04
2019-01-15T22:05:52.414Z,11.87
2019-01-15T22:08:19.275Z,12.22
2019-01-15T22:10:46.193Z,11.31
2019-01-15T22:13:13.364Z,11.26
2019-01-15T22:15:40.329Z,11.56
2019-01-15T22:18:07.683Z,11.83
2019-01-15T22:20:34.620Z,11.70
2019-01-15T22:23:01.851Z,11.99
2019-01-15T22:25:28.782Z,12.24
2019-01-15T22:27:55.803Z,12.34
2019-01-15T22:30:22.926Z,12.07
2019-01-15T22:32:50.264Z,11.72
2019-01-15T22:35:17.404Z,11.90
2019-01-15T22:37:44.655Z,12.25
2019-01-15T22:40:11.814Z,12.10
2019-01-15T22:42:38.794Z,11.89
2019-01-15T22:45:06.001Z,12.19
2019-01-15T22:47:33.156Z,12.05
2019-01-15T22:50:00.409Z,12.16
2019-01-15T22:52:27.347Z,12.00
2019-01-15T22:54:54.619Z,11.84
2019-01-15T22:57:21.866Z,11.89
2019-01-15T22:59:49.122Z,12.00
2019-01-15T23:02:16.002Z,11.90
2019-01-15T23:04:43.313Z,12.07
2019-01-15T23:07:10.567Z,12.11
2019-01-15T23:09:37.563Z,12.10
2019-01-15T23:12:04.499Z,12.06
2019-01-15T23:14:31.423Z,11.57
2019-01-15T23:16:58.289Z,11.82
2019-01-15T23:19:25.178Z,11.89
2019-01-15T23:21:52.462Z,12.01
2019-01-15T23:24:19.697Z,11.71
2019-01-15T23:26:46.628Z,11.62
2019-01-15T23:29:13.589Z,11.73
2019-01-15T23:31:40.842Z,11.52
2019-01-15T23:34:08.086Z,11.60
2019-01-15T23:36:35.007Z,11.70
2019-01-15T23:39:02.284Z,11.74
2019-01-15T23:41:31.079Z,11.87
2019-01-15T23:43:58.347Z,11.56
2019-01-15T23:46:25.228Z,11.37
2019-01-15T23:48:52.172Z,11.65
2019-01-15T23:51:19.386Z,11.83
2019-01-15T23:53:46.288Z,11.97
2019-01-15T23:56:13.579Z,11.87
2019-01-15T23:58:40.581Z,11.82
